Time;durP1;ratioP1;P1;durP2;ratioP2;P2;SDS_P1;SDS_P2;PMS_P1;PMS_P2;Temp;Humidity;BMP_temperature;BMP_pressure;BME280_temperature;BME280_humidity;BME280_pressure;Samples;Min_cycle;Max_cycle;Signal;HPM_P1;HPM_P2
2022/06/01 00:01:01;;;;;;;7.10;5.10;;;;;;;11.36;64.77;96972.17;1675305;85;25827;-75
2022/06/01 00:03:35;;;;;;;8.65;4.92;;;;;;;11.33;64.78;96972.66;1675364;85;25677;-75
2022/06/01 00:06:01;;;;;;;12.13;5.47;;;;;;;11.29;64.76;96982.25;1675243;85;26037;-75
2022/06/01 00:08:28;;;;;;;7.55;4.37;;;;;;;11.24;64.86;96983.44;1675260;85;27542;-75
2022/06/01 00:10:55;;;;;;;8.05;5.22;;;;;;;11.19;64.96;96976.86;1675350;85;25826;-75
2022/06/01 00:13:22;;;;;;;8.78;5.62;;;;;;;11.19;65.02;96983.61;1686953;84;25310;-74
2022/06/01 00:15:49;;;;;;;8.60;5.10;;;;;;;11.17;65.07;96987.06;1702935;84;25853;-75
2022/06/01 00:18:16;;;;;;;8.80;6.08;;;;;;;11.15;65.21;96972.95;1703023;84;26075;-76
2022/06/01 00:20:44;;;;;;;10.90;5.67;;;;;;;11.15;65.29;96966.72;1702910;84;27372;-75
2022/06/01 00:23:10;;;;;;;8.98;5.97;;;;;;;11.16;65.30;96976.47;1702911;84;25883;-75
2022/06/01 00:25:37;;;;;;;9.03;6.12;;;;;;;11.15;65.37;96987.80;1712122;81;25759;-75
2022/06/01 00:28:05;;;;;;;10.90;5.42;;;;;;;11.12;65.34;96986.06;1764086;81;26759;-74
2022/06/01 00:30:32;;;;;;;8.30;5.62;;;;;;;11.10;65.57;96984.97;1763884;81;25172;-75
2022/06/01 00:32:58;;;;;;;7.45;5.65;;;;;;;11.11;65.65;96986.59;1763764;81;27480;-74
2022/06/01 00:35:26;;;;;;;9.60;5.28;;;;;;;11.12;65.56;96979.31;1763867;81;25781;-76
2022/06/01 00:37:52;;;;;;;7.12;4.67;;;;;;;11.11;65.59;96981.71;1763879;81;25705;-75
2022/06/01 00:40:22;;;;;;;10.10;4.92;;;;;;;11.11;65.69;96987.94;1763818;81;25654;-75
2022/06/01 00:42:54;;;;;;;7.37;4.25;;;;;;;11.10;65.71;96982.27;1764121;81;25670;-75
2022/06/01 00:45:24;;;;;;;9.93;4.78;;;;;;;11.11;65.79;96978.48;1764099;81;27474;-75
2022/06/01 00:47:51;;;;;;;6.75;5.12;;;;;;;11.11;65.84;96973.09;1764097;81;25751;-75
2022/06/01 00:50:29;;;;;;;5.03;4.10;;;;;;;11.08;65.80;96968.16;1795680;78;25745;-75
2022/06/01 00:53:10;;;;;;;10.98;5.40;;;;;;;11.07;65.91;96971.91;1801518;79;25705;-76
2022/06/01 00:55:41;;;;;;;6.58;4.67;;;;;;;10.99;65.98;96965.43;1772617;80;25868;-75
2022/06/01 00:58:18;;;;;;;7.55;5.00;;;;;;;10.88;66.10;96959.42;1765875;80;27410;-75
2022/06/01 01:00:51;;;;;;;8.00;4.90;;;;;;;10.82;66.19;96945.48;1770757;80;25717;-75
2022/06/01 01:03:21;;;;;;;8.20;4.90;;;;;;;10.81;66.29;96939.78;1772735;80;25964;-75
2022/06/01 01:06:02;;;;;;;5.78;4.55;;;;;;;10.81;66.41;96940.61;1772607;80;26580;-75
2022/06/01 01:08:29;;;;;;;7.60;4.45;;;;;;;10.81;66.44;96939.78;1692932;84;25530;-76
2022/06/01 01:10:56;;;;;;;8.10;4.42;;;;;;;10.75;66.46;96942.84;1693480;84;27387;-74
2022/06/01 01:13:23;;;;;;;9.73;4.25;;;;;;;10.80;66.54;96957.03;1693322;84;25627;-75
2022/06/01 01:15:58;;;;;;;6.37;4.42;;;;;;;10.82;66.61;96957.64;1693279;84;25897;-75
2022/06/01 01:18:29;;;;;;;6.40;4.30;;;;;;;10.87;66.56;96959.13;1693431;84;25907;-75
2022/06/01 01:21:36;;;;;;;4.28;3.83;;;;;;;10.89;66.56;96946.75;1627025;88;25397;-75
2022/06/01 01:24:14;;;;;;;7.00;4.10;;;;;;;10.85;66.62;96942.87;1626645;88;27610;-74
2022/06/01 01:26:47;;;;;;;6.78;4.00;;;;;;;10.83;66.70;96941.73;1625200;88;25748;-75
2022/06/01 01:29:15;;;;;;;6.58;4.00;;;;;;;10.86;66.79;96942.65;1626989;88;25853;-75
2022/06/01 01:31:43;;;;;;;5.30;4.17;;;;;;;10.90;66.80;96943.83;1627089;88;26473;-74
2022/06/01 01:34:09;;;;;;;4.83;4.12;;;;;;;10.92;66.86;96930.94;1627092;88;25900;-75
2022/06/01 01:36:44;;;;;;;8.58;4.15;;;;;;;10.92;66.79;96926.88;1626938;88;28232;-75
2022/06/01 01:39:15;;;;;;;5.10;4.00;;;;;;;10.93;66.79;96926.36;1560643;91;25941;-75
2022/06/01 01:41:51;;;;;;;4.50;3.83;;;;;;;10.94;66.84;96928.84;1546697;92;25794;-75
2022/06/01 01:44:50;;;;;;;7.97;3.98;;;;;;;10.95;66.89;96929.67;1546619;92;26660;-75
2022/06/01 01:47:17;;;;;;;4.92;4.20;;;;;;;10.95;66.99;96925.62;1546483;92;25809;-75
2022/06/01 01:49:43;;;;;;;5.17;3.90;;;;;;;10.94;67.02;96925.31;1580746;89;27541;-75
2022/06/01 01:52:15;;;;;;;7.28;4.05;;;;;;;10.95;67.02;96928.31;1587694;90;25361;-75
2022/06/01 01:55:02;;;;;;;4.73;3.70;;;;;;;10.95;67.07;96927.80;1593900;90;26438;-75
2022/06/01 01:58:02;;;;;;;4.92;3.83;;;;;;;10.95;67.08;96939.95;1592884;89;26420;-75
2022/06/01 02:00:36;;;;;;;8.73;3.72;;;;;;;10.92;67.12;96932.28;1566523;91;25973;-74
2022/06/01 02:03:35;;;;;;;9.13;4.30;;;;;;;10.86;67.14;96941.30;1533713;93;26874;-74
2022/06/01 02:06:21;;;;;;;6.05;3.77;;;;;;;10.85;67.31;96938.30;1533686;93;25813;-75
2022/06/01 02:09:09;;;;;;;6.40;3.90;;;;;;;10.82;67.31;96948.19;1533773;93;25896;-74
2022/06/01 02:14:46;;;;;;;6.65;4.05;;;;;;;10.85;67.47;96946.92;1533517;93;25909;-75
2022/06/01 02:17:23;;;;;;;4.85;4.22;;;;;;;10.87;67.53;96951.02;1504339;95;27500;-75
2022/06/01 02:20:07;;;;;;;6.25;4.50;;;;;;;10.89;67.57;96953.50;1503890;95;25827;-75
2022/06/01 02:22:34;;;;;;;5.10;4.20;;;;;;;10.91;67.52;96947.36;1550970;92;25826;-75
2022/06/01 02:25:01;;;;;;;7.05;4.70;;;;;;;10.91;67.64;96937.38;1598317;88;26404;-75
2022/06/01 02:27:29;;;;;;;6.53;4.12;;;;;;;10.88;67.68;96937.00;1570526;91;25804;-75
2022/06/01 02:30:00;;;;;;;7.33;4.60;;;;;;;10.85;67.75;96936.95;1586096;90;27397;-75
2022/06/01 02:32:28;;;;;;;5.10;4.17;;;;;;;10.81;67.79;96934.38;1641173;87;25755;-75
2022/06/01 02:34:58;;;;;;;6.53;4.42;;;;;;;10.78;67.94;96929.42;1641288;87;25361;-75
2022/06/01 02:37:29;;;;;;;10.00;4.55;;;;;;;10.69;68.05;96930.77;1641340;87;26634;-75
2022/06/01 02:39:58;;;;;;;6.62;4.37;;;;;;;10.67;68.18;96931.52;1614691;88;26193;-75
2022/06/01 02:42:28;;;;;;;7.80;4.55;;;;;;;10.69;68.18;96929.42;1614783;88;27421;-75
2022/06/01 02:45:04;;;;;;;7.92;4.35;;;;;;;10.72;68.31;96927.64;1625857;87;25846;-75
2022/06/01 02:47:37;;;;;;;7.53;4.15;;;;;;;10.76;68.27;96926.94;1641184;87;25777;-75
2022/06/01 02:50:13;;;;;;;6.87;4.65;;;;;;;10.77;68.33;96925.90;1642264;86;26631;-76
2022/06/01 02:52:40;;;;;;;7.83;4.28;;;;;;;10.76;68.41;96935.56;1655340;86;25739;-74
2022/06/01 02:55:09;;;;;;;5.95;4.17;;;;;;;10.75;68.42;96935.27;1655531;86;27638;-74
2022/06/01 02:57:37;;;;;;;6.20;4.72;;;;;;;10.81;68.45;96934.38;1655581;86;26544;-75
2022/06/01 03:00:22;;;;;;;5.30;3.85;;;;;;;10.85;68.49;96928.02;1675204;84;26539;-74
2022/06/01 03:02:56;;;;;;;6.55;4.35;;;;;;;10.88;68.52;96929.72;1637232;87;25765;-74
2022/06/01 03:05:28;;;;;;;5.62;4.05;;;;;;;10.86;68.66;96929.15;1637349;87;25739;-75
2022/06/01 03:07:55;;;;;;;7.03;4.37;;;;;;;10.81;68.77;96930.33;1637586;87;28268;-75
2022/06/01 03:10:22;;;;;;;8.98;4.85;;;;;;;10.76;68.79;96931.52;1637301;87;26568;-75
2022/06/01 03:12:49;;;;;;;7.53;5.30;;;;;;;10.76;68.87;96924.77;1649180;86;25846;-75
2022/06/01 03:15:19;;;;;;;8.05;5.25;;;;;;;10.81;68.96;96919.02;1647084;87;26419;-75
2022/06/01 03:17:45;;;;;;;8.48;5.08;;;;;;;10.86;68.92;96918.34;1647462;87;25834;-75
2022/06/01 03:20:16;;;;;;;9.23;5.20;;;;;;;10.91;69.00;96917.13;1698227;83;28242;-75
2022/06/01 03:22:44;;;;;;;8.03;5.37;;;;;;;10.96;68.95;96930.80;1711083;83;26432;-74
2022/06/01 03:25:16;;;;;;;5.50;4.45;;;;;;;10.98;69.06;96932.75;1713016;83;25846;-75
2022/06/01 03:27:43;;;;;;;7.75;5.05;;;;;;;11.00;68.97;96945.48;1709065;83;25829;-74
2022/06/01 03:30:13;;;;;;;6.17;4.62;;;;;;;11.06;69.04;96966.72;1712969;83;25759;-74
2022/06/01 03:32:40;;;;;;;7.17;4.70;;;;;;;11.13;69.03;96999.35;1713014;83;27423;-75
2022/06/01 03:35:07;;;;;;;6.90;4.22;;;;;;;11.17;69.02;96988.94;1712987;83;25821;-75
2022/06/01 03:37:34;;;;;;;5.35;4.28;;;;;;;11.17;69.06;96980.30;1713049;83;25791;-75
2022/06/01 03:40:01;;;;;;;7.62;5.00;;;;;;;11.18;69.23;96959.00;1745869;80;25836;-74
2022/06/01 03:42:27;;;;;;;5.75;4.62;;;;;;;11.17;69.23;96968.67;1786158;80;25746;-75
2022/06/01 03:47:39;;;;;;;6.53;4.97;;;;;;;11.13;69.37;96969.64;1786144;80;25655;-75
2022/06/01 03:50:08;;;;;;;9.50;6.00;;;;;;;11.16;69.34;96981.36;1787607;79;26617;-74
2022/06/01 03:52:35;;;;;;;14.60;8.23;;;;;;;11.23;69.34;96988.57;1792488;80;25885;-75
2022/06/01 03:55:02;;;;;;;11.28;7.12;;;;;;;11.28;69.17;96986.00;1792849;80;25724;-74
2022/06/01 03:57:28;;;;;;;13.22;7.12;;;;;;;11.29;69.17;96975.50;1792710;80;28203;-75
2022/06/01 03:59:55;;;;;;;16.32;6.85;;;;;;;11.31;69.17;96980.16;1792742;80;25390;-74
2022/06/01 04:02:22;;;;;;;7.90;6.30;;;;;;;11.34;69.17;96997.27;1792816;80;25628;-76
2022/06/01 04:04:48;;;;;;;7.58;6.30;;;;;;;11.36;69.21;97001.90;1792875;79;25691;-75
2022/06/01 04:07:15;;;;;;;10.20;6.55;;;;;;;11.38;69.19;96991.17;1792765;79;25700;-74
2022/06/01 04:09:42;;;;;;;45.00;33.53;;;;;;;11.44;69.36;96991.63;1792842;80;27582;-75
2022/06/01 04:12:09;;;;;;;27.17;16.57;;;;;;;11.52;69.31;96999.95;1792647;80;25719;-74
2022/06/01 04:14:35;;;;;;;15.40;8.53;;;;;;;11.61;69.37;97008.03;1792851;79;25694;-75
2022/06/01 04:17:02;;;;;;;9.95;7.10;;;;;;;11.68;69.12;97006.09;1792827;80;25623;-75
2022/06/01 04:19:28;;;;;;;9.78;6.60;;;;;;;11.74;69.21;97006.52;1792920;80;25688;-75
2022/06/01 04:21:55;;;;;;;8.95;5.97;;;;;;;11.82;69.20;97012.19;1792895;80;27431;-75
2022/06/01 04:24:29;;;;;;;8.50;5.92;;;;;;;11.89;69.05;97028.61;1792798;80;25722;-75
2022/06/01 04:26:56;;;;;;;9.78;6.95;;;;;;;11.95;69.13;97022.83;1791437;80;25738;-75
2022/06/01 04:29:22;;;;;;;11.12;6.85;;;;;;;12.02;69.16;97017.31;1792790;80;26176;-75
2022/06/01 04:31:50;;;;;;;11.03;7.45;;;;;;;12.10;69.09;97021.03;1792898;80;25411;-75
2022/06/01 04:34:16;;;;;;;12.68;8.00;;;;;;;12.15;69.00;97021.19;1792748;80;27627;-74
2022/06/01 04:36:43;;;;;;;12.10;8.05;;;;;;;12.23;68.86;97003.25;1792617;80;25663;-75
2022/06/01 04:39:10;;;;;;;13.60;7.20;;;;;;;12.33;68.99;97005.39;1792449;80;25702;-75
2022/06/01 04:41:36;;;;;;;12.47;7.10;;;;;;;12.37;68.87;97016.06;1792828;80;26072;-75
2022/06/01 04:44:03;;;;;;;12.53;7.17;;;;;;;12.44;68.79;97021.66;1792902;80;25363;-75
2022/06/01 04:46:30;;;;;;;14.47;7.55;;;;;;;12.51;68.73;97040.52;1792742;80;27331;-74
2022/06/01 04:48:57;;;;;;;13.25;8.03;;;;;;;12.52;68.76;97044.34;1792646;79;25709;-75
2022/06/01 04:51:24;;;;;;;11.78;7.35;;;;;;;12.55;68.77;97045.25;1792509;77;25898;-74
2022/06/01 04:53:50;;;;;;;11.57;7.20;;;;;;;12.61;68.88;97047.53;1792826;80;25913;-75
2022/06/01 04:56:17;;;;;;;12.70;7.42;;;;;;;12.69;68.94;97045.00;1792916;80;25745;-75
2022/06/01 04:58:43;;;;;;;9.40;6.87;;;;;;;12.73;68.99;97042.14;1792776;80;27569;-75
2022/06/01 05:01:10;;;;;;;14.00;7.25;;;;;;;12.75;68.91;97035.44;1792559;80;25703;-74
2022/06/01 05:03:36;;;;;;;13.62;7.55;;;;;;;12.78;68.84;97040.92;1792891;80;25710;-74
2022/06/01 05:06:03;;;;;;;11.40;6.87;;;;;;;12.83;68.73;97036.96;1792680;80;25893;-75
2022/06/01 05:08:30;;;;;;;9.55;6.87;;;;;;;12.86;68.86;97035.14;1792904;80;25731;-75
2022/06/01 05:10:57;;;;;;;11.33;7.25;;;;;;;12.88;68.80;97033.86;1792749;80;28349;-74
2022/06/01 05:13:23;;;;;;;9.15;6.83;;;;;;;12.94;68.76;97034.78;1792677;80;25796;-75
2022/06/01 05:15:55;;;;;;;10.80;7.35;;;;;;;12.98;68.69;97023.25;1792760;80;25740;-75
2022/06/01 05:18:23;;;;;;;15.80;7.50;;;;;;;13.01;68.70;97017.91;1792757;80;25766;-74
2022/06/01 05:20:50;;;;;;;14.63;7.47;;;;;;;13.03;68.70;97015.78;1792871;80;25765;-74
2022/06/01 05:23:17;;;;;;;13.60;7.80;;;;;;;13.05;68.77;97012.28;1792862;79;27203;-75
2022/06/01 05:25:47;;;;;;;12.45;7.62;;;;;;;13.09;68.90;97013.47;1792728;80;25731;-75
2022/06/01 05:28:24;;;;;;;12.20;7.90;;;;;;;13.12;68.97;97007.58;1792706;80;25743;-75
2022/06/01 05:30:50;;;;;;;13.48;7.83;;;;;;;13.15;69.10;97017.98;1792759;80;25725;-75
2022/06/01 05:33:17;;;;;;;15.55;7.87;;;;;;;13.19;69.16;97018.32;1792829;80;25647;-75
2022/06/01 05:35:44;;;;;;;14.95;8.95;;;;;;;13.24;69.21;97013.84;1792955;79;27450;-75
2022/06/01 05:38:10;;;;;;;16.97;10.15;;;;;;;13.30;69.31;97007.46;1792318;80;25820;-75
2022/06/01 05:40:37;;;;;;;15.65;9.30;;;;;;;13.39;69.30;97012.54;1792896;80;25716;-75
2022/06/01 05:43:10;;;;;;;16.32;8.08;;;;;;;13.43;69.21;97009.62;1792666;80;26358;-75
2022/06/01 05:45:38;;;;;;;15.55;8.30;;;;;;;13.50;68.98;97006.27;1791431;80;25635;-75
2022/06/01 05:48:08;;;;;;;17.52;8.73;;;;;;;13.55;69.02;96998.22;1793078;79;26908;-75
2022/06/01 05:50:35;;;;;;;14.98;8.35;;;;;;;13.59;69.07;96988.55;1796078;78;26438;-75
2022/06/01 05:53:01;;;;;;;21.00;7.60;;;;;;;13.66;69.07;96990.58;1817176;78;25999;-75
2022/06/01 05:55:28;;;;;;;20.52;7.75;;;;;;;13.72;69.13;96995.59;1817326;78;26541;-75
2022/06/01 05:57:55;;;;;;;13.43;7.30;;;;;;;13.79;68.95;96985.41;1817395;78;26344;-75
2022/06/01 06:00:22;;;;;;;13.08;7.42;;;;;;;13.88;68.75;96988.05;1817252;78;27384;-75
2022/06/01 06:02:49;;;;;;;16.70;7.70;;;;;;;13.97;68.75;96977.91;1817233;78;25706;-75
2022/06/01 06:08:00;;;;;;;11.85;6.45;;;;;;;14.15;68.45;96971.97;1816978;78;25950;-75
2022/06/01 06:10:28;;;;;;;12.47;6.95;;;;;;;14.24;68.38;96982.73;1817441;78;25440;-75
2022/06/01 06:12:55;;;;;;;9.15;6.17;;;;;;;14.32;68.17;96990.47;1817267;78;27423;-75
2022/06/01 06:15:22;;;;;;;14.20;6.60;;;;;;;14.41;68.01;96991.73;1817286;78;26052;-75
2022/06/01 06:17:48;;;;;;;9.83;6.15;;;;;;;14.51;67.78;96981.58;1817396;78;25663;-75
2022/06/01 06:20:15;;;;;;;10.60;5.92;;;;;;;14.62;67.69;96984.21;1817239;78;25712;-75
2022/06/01 06:22:42;;;;;;;8.15;6.03;;;;;;;14.74;67.50;96980.05;1817168;78;25935;-75
2022/06/01 06:25:09;;;;;;;10.28;6.10;;;;;;;14.87;67.35;96982.43;1817343;78;27416;-75
2022/06/01 06:27:35;;;;;;;11.25;5.35;;;;;;;15.04;67.11;96981.06;1817220;78;26290;-75
2022/06/01 06:30:02;;;;;;;11.25;5.72;;;;;;;15.19;66.89;96985.36;1817251;78;25228;-74
2022/06/01 06:32:29;;;;;;;8.80;5.40;;;;;;;15.31;66.71;96980.64;1817297;78;26451;-75
2022/06/01 06:34:55;;;;;;;8.08;5.35;;;;;;;15.41;66.50;96976.69;1817439;78;25824;-75
2022/06/01 06:37:22;;;;;;;8.70;5.67;;;;;;;15.55;66.83;96972.27;1817372;78;27329;-75
2022/06/01 06:39:49;;;;;;;10.30;6.03;;;;;;;15.70;66.85;96973.78;1817011;78;25900;-75
2022/06/01 06:42:15;;;;;;;5.47;4.87;;;;;;;15.79;66.67;96961.40;1817404;78;25686;-75
2022/06/01 06:44:42;;;;;;;10.43;5.22;;;;;;;15.88;66.39;96962.58;1817127;78;25842;-75
2022/06/01 06:47:08;;;;;;;8.35;5.17;;;;;;;15.97;66.07;96961.03;1817325;78;25669;-75
2022/06/01 06:49:35;;;;;;;6.08;5.30;;;;;;;16.07;65.98;96962.50;1817428;78;26811;-75
2022/06/01 06:52:01;;;;;;;7.85;4.75;;;;;;;16.19;65.65;96964.52;1778175;80;25851;-75
2022/06/01 06:54:28;;;;;;;6.60;4.53;;;;;;;16.33;65.39;96971.73;1786627;79;25760;-75
2022/06/01 06:56:55;;;;;;;7.00;5.05;;;;;;;16.41;65.28;96970.47;1786602;80;26665;-76
2022/06/01 06:59:21;;;;;;;7.28;4.33;;;;;;;16.49;65.03;96977.62;1786476;80;25782;-76
2022/06/01 07:01:48;;;;;;;7.58;4.72;;;;;;;16.56;64.93;96976.84;1786481;79;27368;-76
2022/06/01 07:04:14;;;;;;;10.78;4.85;;;;;;;16.69;64.78;96974.80;1786379;80;26309;-76
2022/06/01 07:06:41;;;;;;;6.40;5.05;;;;;;;16.84;64.63;96986.66;1786357;80;25705;-75
2022/06/01 07:09:08;;;;;;;6.12;4.35;;;;;;;17.00;64.33;96990.31;1786532;80;25806;-75
2022/06/01 07:11:34;;;;;;;6.17;4.33;;;;;;;17.16;64.09;96985.77;1786491;80;25713;-76
2022/06/01 07:14:01;;;;;;;7.15;4.30;;;;;;;17.35;64.69;96976.62;1786517;80;27989;-75
2022/06/01 07:16:32;;;;;;;11.18;4.72;;;;;;;17.55;64.48;96973.44;1786384;79;25837;-75
2022/06/01 07:19:03;;;;;;;6.15;4.37;;;;;;;17.70;63.70;96971.89;1786209;79;25748;-75
2022/06/01 07:21:31;;;;;;;7.25;3.80;;;;;;;17.83;63.17;96976.86;1786641;79;25721;-75
2022/06/01 07:23:58;;;;;;;7.97;3.90;;;;;;;17.90;62.50;96980.97;1786532;80;25996;-74
2022/06/01 07:26:41;;;;;;;7.05;4.30;;;;;;;17.96;62.77;96977.73;1785346;80;28403;-76
2022/06/01 07:29:09;;;;;;;8.68;4.53;;;;;;;18.08;62.58;96971.48;1784897;80;25905;-75
2022/06/01 07:31:36;;;;;;;10.38;4.53;;;;;;;18.26;62.27;96973.69;1784735;80;25746;-75
2022/06/01 07:34:03;;;;;;;7.97;4.28;;;;;;;18.40;61.80;96978.09;1785498;79;26241;-74
2022/06/01 07:36:32;;;;;;;9.25;4.80;;;;;;;18.51;61.58;96967.98;1778649;80;25756;-74
2022/06/01 07:44:49;;;;;;;8.38;4.58;;;;;;;18.98;60.47;96968.55;1749296;82;25769;-76
2022/06/01 07:47:18;;;;;;;5.83;4.40;;;;;;;19.18;60.43;96960.87;1749621;82;25698;-75
2022/06/01 07:49:45;;;;;;;4.87;3.83;;;;;;;19.28;59.59;96971.78;1749687;81;25732;-75
2022/06/01 07:52:13;;;;;;;12.37;4.75;;;;;;;19.42;59.35;96969.30;1746077;81;27543;-75
2022/06/01 07:54:42;;;;;;;7.55;4.83;;;;;;;19.56;58.96;96972.30;1817743;78;25665;-75
2022/06/01 07:57:11;;;;;;;5.87;4.25;;;;;;;19.73;59.08;96979.05;1818357;78;25744;-75
2022/06/01 07:59:38;;;;;;;4.72;4.25;;;;;;;19.89;58.46;96976.27;1817499;78;25844;-76
2022/06/01 08:02:09;;;;;;;6.17;4.67;;;;;;;19.94;57.99;96972.11;1817669;78;25722;-75
2022/06/01 08:04:34;;;;;;;5.70;4.03;;;;;;;19.98;58.24;96974.56;1771490;80;28260;-75
2022/06/01 08:07:01;;;;;;;6.37;3.90;;;;;;;20.07;57.82;96979.72;1773967;80;25820;-75
2022/06/01 08:09:27;;;;;;;6.90;4.25;;;;;;;20.10;57.57;96979.16;1773877;80;25698;-76
2022/06/01 08:14:39;;;;;;;6.40;3.90;;;;;;;19.96;57.09;96993.20;1789900;80;26394;-75
2022/06/01 08:17:05;;;;;;;6.45;4.30;;;;;;;19.89;57.04;97000.91;1790163;80;27351;-75
2022/06/01 08:19:32;;;;;;;8.40;5.17;;;;;;;19.88;56.92;97006.12;1784081;80;25890;-75
2022/06/01 08:21:59;;;;;;;6.60;4.87;;;;;;;19.89;57.00;97003.65;1773816;80;25712;-75
2022/06/01 08:24:25;;;;;;;6.15;4.30;;;;;;;19.82;57.05;97009.95;1773767;80;25742;-76
2022/06/01 08:26:52;;;;;;;7.62;5.20;;;;;;;19.79;57.44;97008.63;1773804;80;25743;-76
2022/06/01 08:29:18;;;;;;;8.85;4.75;;;;;;;20.07;57.41;97007.11;1774048;80;27527;-76
2022/06/01 08:31:45;;;;;;;9.80;4.78;;;;;;;20.23;57.32;97019.64;1773811;80;25641;-75
2022/06/01 08:34:15;;;;;;;10.82;5.42;;;;;;;20.34;57.06;97016.30;1774076;80;25832;-76
2022/06/01 08:36:40;;;;;;;11.63;4.78;;;;;;;20.36;56.86;97025.91;1771538;80;25841;-75
2022/06/01 08:39:06;;;;;;;7.28;4.33;;;;;;;20.38;56.53;97022.34;1773916;80;25659;-76
2022/06/01 08:41:37;;;;;;;5.10;4.00;;;;;;;20.45;56.32;97019.27;1773933;80;27600;-75
2022/06/01 08:44:21;;;;;;;6.50;4.10;;;;;;;20.78;56.18;97023.15;1773729;80;25283;-76
2022/06/01 08:46:47;;;;;;;5.08;3.62;;;;;;;20.78;56.18;97023.15;1772953;80;25203;-76
2022/06/01 08:49:25;;;;;;;7.50;3.50;;;;;;;21.28;55.98;97001.91;1773972;80;25714;-75
2022/06/01 08:51:53;;;;;;;6.72;4.08;;;;;;;21.70;55.06;97014.93;1776668;79;25680;-75
2022/06/01 08:54:21;;;;;;;6.85;3.85;;;;;;;21.83;54.24;97026.59;1760003;80;27372;-75
2022/06/01 08:56:52;;;;;;;4.90;4.05;;;;;;;21.74;53.89;97034.64;1759798;81;25692;-75
2022/06/01 08:59:42;;;;;;;5.15;4.25;;;;;;;21.51;53.57;97043.67;1750977;81;25754;-76
2022/06/01 09:02:49;;;;;;;5.92;4.30;;;;;;;21.37;53.55;97033.95;1750642;81;25800;-77
2022/06/01 09:05:33;;;;;;;8.68;4.15;;;;;;;21.88;53.72;97035.58;1750870;81;25307;-76
2022/06/01 09:08:14;;;;;;;5.25;3.47;;;;;;;22.06;53.57;97030.47;1679044;85;27462;-76
2022/06/01 09:10:51;;;;;;;4.70;3.47;;;;;;;22.14;53.24;97025.69;1641011;87;25747;-76
2022/06/01 09:13:26;;;;;;;4.78;3.50;;;;;;;22.66;52.75;97028.82;1578465;89;25837;-77
2022/06/01 09:16:07;;;;;;;4.62;3.45;;;;;;;23.27;52.08;97022.36;1607394;89;26720;-75
2022/06/01 09:18:39;;;;;;;3.67;3.12;;;;;;;23.71;51.05;97012.20;1629949;87;25844;-76
2022/06/01 09:23:52;;;;;;;3.98;3.45;;;;;;;24.70;49.53;97016.47;1604983;89;25815;-74
2022/06/01 09:26:28;;;;;;;7.22;3.30;;;;;;;24.86;48.75;97010.59;1605258;89;25950;-74
2022/06/01 09:28:59;;;;;;;3.58;3.22;;;;;;;25.19;48.96;97002.89;1605340;89;26592;-74
2022/06/01 09:31:41;;;;;;;6.35;3.45;;;;;;;25.51;47.61;97007.30;1605362;89;25813;-74
2022/06/01 09:34:46;;;;;;;6.53;3.05;;;;;;;25.70;47.57;97002.41;1596710;89;27475;-74
2022/06/01 09:37:26;;;;;;;4.53;3.02;;;;;;;26.20;46.80;97002.91;1579995;90;25846;-75
2022/06/01 09:39:57;;;;;;;3.50;2.92;;;;;;;26.07;45.27;97008.81;1506573;95;25858;-74
2022/06/01 09:42:30;;;;;;;5.12;3.02;;;;;;;25.72;44.85;97012.58;1506637;95;25854;-75
2022/06/01 09:44:59;;;;;;;3.75;2.70;;;;;;;25.58;44.41;97012.64;1489213;96;25858;-74
2022/06/01 09:47:43;;;;;;;4.28;2.95;;;;;;;25.30;44.36;97010.61;1490630;96;27433;-74
2022/06/01 09:50:30;;;;;;;3.90;2.80;;;;;;;25.03;43.99;97013.50;1491026;96;25823;-75
2022/06/01 09:53:21;;;;;;;5.33;2.98;;;;;;;25.23;43.84;97004.73;1471694;97;25802;-74
2022/06/01 09:55:55;;;;;;;4.80;3.25;;;;;;;25.62;44.04;97011.45;1475456;96;25892;-74
2022/06/01 10:07:28;;;;;;;4.12;2.90;;;;;;;25.40;42.68;96992.38;1467414;97;25853;-75
2022/06/01 10:09:59;;;;;;;4.72;3.22;;;;;;;25.51;42.74;96994.86;1467546;97;25869;-76
2022/06/01 10:12:44;;;;;;;3.37;2.60;;;;;;;25.71;42.87;97006.80;1410646;100;25837;-76
2022/06/01 10:15:37;;;;;;;6.80;3.60;;;;;;;25.62;42.13;97007.30;1410730;101;27510;-75
2022/06/01 10:18:15;;;;;;;4.22;3.27;;;;;;;25.26;42.45;97015.12;1448158;96;25941;-75
2022/06/01 10:20:52;;;;;;;4.35;3.55;;;;;;;24.85;43.22;97017.23;1453171;98;25917;-75
2022/06/01 10:23:27;;;;;;;5.35;3.40;;;;;;;24.59;43.11;97021.97;1451341;98;25981;-74
2022/06/01 10:26:04;;;;;;;4.42;3.17;;;;;;;24.24;43.70;97021.37;1453417;98;25487;-74
2022/06/01 10:28:47;;;;;;;6.62;3.08;;;;;;;24.02;43.93;97020.14;1453298;98;28468;-75
2022/06/01 10:31:43;;;;;;;4.60;3.37;;;;;;;23.76;44.33;97020.95;1453279;98;26023;-75
2022/06/01 10:34:21;;;;;;;5.87;3.30;;;;;;;23.30;44.87;97022.59;1453350;98;25414;-74
2022/06/01 10:37:20;;;;;;;3.80;3.00;;;;;;;23.24;45.63;97018.27;1407264;101;26412;-74
2022/06/01 10:39:55;;;;;;;6.17;3.58;;;;;;;23.45;45.94;97016.52;1408257;101;25944;-76
2022/06/01 10:45:22;;;;;;;2.90;2.47;;;;;;;24.18;45.31;97006.83;1449875;98;26054;-76
2022/06/01 10:48:06;;;;;;;3.90;2.60;;;;;;;24.68;44.47;96999.39;1450027;98;25840;-74
2022/06/01 10:50:39;;;;;;;2.90;2.60;;;;;;;24.69;44.15;97000.22;1498488;94;25885;-74
2022/06/01 10:53:58;;;;;;;4.28;2.87;;;;;;;24.69;43.62;97003.79;1485635;95;25979;-74
2022/06/01 10:56:24;;;;;;;3.70;2.20;;;;;;;24.69;43.41;97001.03;1476750;97;27693;-76
2022/06/01 10:58:54;;;;;;;2.20;2.00;;;;;;;24.75;43.04;97012.19;1468271;97;25885;-76
2022/06/01 11:02:02;;;;;;;1.70;1.60;;;;;;;24.75;43.03;97016.92;1468517;97;25844;-74
2022/06/01 11:04:58;;;;;;;2.70;2.05;;;;;;;24.70;42.55;97011.51;1468590;97;25898;-76
2022/06/01 11:07:56;;;;;;;2.67;1.90;;;;;;;24.48;42.50;97019.19;1468607;97;25863;-77
2022/06/01 11:10:36;;;;;;;3.47;1.95;;;;;;;24.22;42.56;97023.59;1556369;91;27392;-77
2022/06/01 11:13:31;;;;;;;1.62;1.50;;;;;;;23.85;43.21;97028.19;1536729;93;25898;-74
2022/06/01 11:16:29;;;;;;;2.17;1.67;;;;;;;23.65;42.98;97028.59;1538267;93;26344;-76
2022/06/01 11:19:22;;;;;;;2.10;1.70;;;;;;;23.12;42.91;97042.70;1587004;90;25891;-75
2022/06/01 11:21:57;;;;;;;2.67;1.47;;;;;;;22.77;42.97;97044.64;1505818;94;25951;-75
2022/06/01 11:24:45;;;;;;;2.33;1.42;;;;;;;22.49;42.98;97048.58;1473669;96;28351;-76
2022/06/01 11:27:26;;;;;;;1.75;1.22;;;;;;;22.44;43.30;97045.91;1463798;97;26625;-77
2022/06/01 11:30:22;;;;;;;1.45;1.07;;;;;;;22.58;42.61;97039.13;1474811;94;25911;-76
2022/06/01 11:33:19;;;;;;;3.80;1.20;;;;;;;22.82;42.40;97036.33;1525559;89;26389;-76
2022/06/01 11:36:02;;;;;;;1.77;1.15;;;;;;;23.13;41.36;97028.37;1587818;90;25912;-77
2022/06/01 11:38:40;;;;;;;2.87;1.50;;;;;;;22.85;40.67;97041.20;1574083;90;28268;-76
2022/06/01 11:41:15;;;;;;;2.58;1.20;;;;;;;22.75;41.26;97038.58;1587947;90;25984;-76
2022/06/01 11:43:47;;;;;;;2.80;1.20;;;;;;;22.83;41.20;97040.69;1585530;90;25831;-75
2022/06/01 11:46:46;;;;;;;1.40;1.30;;;;;;;23.00;41.28;97034.09;1590629;89;25931;-75
2022/06/01 11:49:41;;;;;;;1.52;1.30;;;;;;;23.08;40.98;97036.71;1550342;91;25863;-76
2022/06/01 11:52:28;;;;;;;3.05;1.30;;;;;;;22.99;40.75;97032.45;1518510;91;27431;-75
2022/06/01 11:55:18;;;;;;;2.77;1.35;;;;;;;22.91;40.61;97033.97;1512293;93;25825;-76
2022/06/01 11:57:55;;;;;;;2.37;1.30;;;;;;;22.86;40.25;97040.09;1512893;94;25793;-75
2022/06/01 12:00:42;;;;;;;3.08;1.20;;;;;;;22.69;40.27;97039.80;1511138;94;25906;-75
2022/06/01 12:03:39;;;;;;;1.32;1.22;;;;;;;22.73;40.16;97032.00;1524769;93;25922;-74
2022/06/01 12:06:13;;;;;;;1.70;1.50;;;;;;;22.78;39.98;97036.66;1517632;93;27452;-74
2022/06/01 12:08:50;;;;;;;1.20;1.10;;;;;;;23.14;39.72;97025.33;1513002;94;25752;-76
2022/06/01 12:11:45;;;;;;;3.95;1.40;;;;;;;23.34;39.17;97033.79;1506010;94;25841;-75
2022/06/01 12:14:39;;;;;;;1.52;1.40;;;;;;;23.49;38.88;97024.45;1510483;94;25951;-74
2022/06/01 12:17:26;;;;;;;2.27;1.60;;;;;;;23.74;38.81;97024.00;1487963;96;26214;-75
2022/06/01 12:20:16;;;;;;;3.80;2.72;;;;;;;24.17;38.79;97018.98;1524358;94;27819;-75
2022/06/01 12:28:56;;;;;;;6.05;1.70;;;;;;;24.95;37.39;97017.02;1738805;80;26526;-75
2022/06/01 12:31:36;;;;;;;1.50;1.40;;;;;;;25.09;37.07;97020.55;1787827;80;25694;-75
2022/06/01 12:34:17;;;;;;;1.85;1.40;;;;;;;25.10;36.59;97023.56;1727749;83;27377;-75
2022/06/01 12:37:07;;;;;;;1.67;1.40;;;;;;;25.07;36.09;97026.94;1727589;83;25930;-75